Time;durP1;ratioP1;P1;durP2;ratioP2;P2;SDS_P1;SDS_P2;PMS_P1;PMS_P2;Temp;Humidity;BMP_temperature;BMP_pressure;BME280_temperature;BME280_humidity;BME280_pressure;Samples;Min_cycle;Max_cycle;Signal;HPM_P1;HPM_P2
2022/02/23 00:00:34;;;;;;;;;;;6.10;99.90;;;;;;5089086;28;19972;-67
2022/02/23 00:03:01;;;;;;;;;;;6.10;99.90;;;;;;5090121;28;19977;-67
2022/02/23 00:05:27;;;;;;;;;;;6.00;99.90;;;;;;5082509;28;19936;-73
2022/02/23 00:07:55;;;;;;;;;;;5.90;99.90;;;;;;5085641;28;19925;-78
2022/02/23 00:10:22;;;;;;;;;;;5.80;99.90;;;;;;5102419;28;19943;-68
2022/02/23 00:12:49;;;;;;;;;;;5.70;99.90;;;;;;5101404;28;19944;-78
2022/02/23 00:15:15;;;;;;;;;;;5.70;99.90;;;;;;5099600;28;19924;-80
2022/02/23 00:17:42;;;;;;;;;;;5.70;99.90;;;;;;5101647;28;19909;-79
2022/02/23 00:20:09;;;;;;;;;;;5.70;99.90;;;;;;5102052;28;19916;-73
2022/02/23 00:22:36;;;;;;;;;;;5.60;99.90;;;;;;5102069;28;19910;-76
2022/02/23 00:25:04;;;;;;;;;;;5.50;99.90;;;;;;5102066;28;19915;-67
2022/02/23 00:27:31;;;;;;;;;;;5.50;99.90;;;;;;5102050;28;19966;-70
2022/02/23 00:29:58;;;;;;;;;;;5.50;99.90;;;;;;5101954;28;19968;-69
2022/02/23 00:32:24;;;;;;;;;;;5.50;99.90;;;;;;5101552;28;19968;-79
2022/02/23 00:34:51;;;;;;;;;;;5.40;99.90;;;;;;5081032;28;19932;-78
2022/02/23 00:37:18;;;;;;;;;;;5.40;99.90;;;;;;5085694;28;19967;-77
2022/02/23 00:39:44;;;;;;;;;;;5.40;99.90;;;;;;5097926;28;19940;-73
2022/02/23 00:42:13;;;;;;;;;;;5.40;99.90;;;;;;5100981;28;19983;-79
2022/02/23 00:44:39;;;;;;;;;;;5.50;99.90;;;;;;5083663;28;19912;-80
2022/02/23 00:47:06;;;;;;;;;;;5.40;99.90;;;;;;5080765;28;21241;-79
2022/02/23 00:49:33;;;;;;;;;;;5.30;99.90;;;;;;5350378;22;20027;-74
2022/02/23 00:52:02;;;;;;;;;;;6.70;99.90;;;;;;5101548;28;19908;-69
2022/02/23 00:54:28;;;;;;;;;;;6.50;99.90;;;;;;5108028;27;19960;-74
2022/02/23 00:56:55;;;;;;;;;;;5.30;99.90;;;;;;5101558;28;19909;-72
2022/02/23 00:59:23;;;;;;;;;;;5.30;99.90;;;;;;5085124;28;19931;-77
2022/02/23 01:01:49;;;;;;;;;;;5.20;99.90;;;;;;5121726;27;19932;-79
2022/02/23 01:04:16;;;;;;;;;;;5.10;99.90;;;;;;5106676;28;19924;-79
2022/02/23 01:06:43;;;;;;;;;;;5.20;99.90;;;;;;5097148;28;19909;-80
2022/02/23 01:09:09;;;;;;;;;;;5.10;99.90;;;;;;5095211;28;19976;-80
2022/02/23 01:11:40;;;;;;;;;;;5.10;99.90;;;;;;5098965;28;19920;-70
2022/02/23 01:14:07;;;;;;;;;;;5.10;99.90;;;;;;5101199;27;19923;-74
2022/02/23 01:16:38;;;;;;;;;;;5.00;99.90;;;;;;5101246;28;19909;-67
2022/02/23 01:19:05;;;;;;;;;;;5.00;99.90;;;;;;5101062;28;20039;-69
2022/02/23 01:21:32;;;;;;;;;;;4.90;99.90;;;;;;5101234;28;19968;-71
2022/02/23 01:24:01;;;;;;;;;;;5.00;99.90;;;;;;5100380;28;19943;-79
2022/02/23 01:26:27;;;;;;;;;;;4.90;99.90;;;;;;5075900;28;19931;-80
2022/02/23 01:28:54;;;;;;;;;;;4.90;99.90;;;;;;5087416;28;20030;-80
2022/02/23 01:31:21;;;;;;;;;;;4.90;99.90;;;;;;5089766;28;19991;-80
2022/02/23 01:33:49;;;;;;;;;;;4.90;99.90;;;;;;5073924;28;19959;-79
2022/02/23 01:36:18;;;;;;;;;;;4.90;99.90;;;;;;5070211;28;19915;-79
2022/02/23 01:38:45;;;;;;;;;;;4.90;99.90;;;;;;5087610;28;19921;-80
2022/02/23 01:41:17;;;;;;;;;;;4.90;99.90;;;;;;5087237;28;19984;-80
2022/02/23 01:43:44;;;;;;;;;;;4.80;99.90;;;;;;5083932;28;19924;-80
2022/02/23 01:46:10;;;;;;;;;;;4.90;99.90;;;;;;5093532;28;19992;-79
2022/02/23 01:48:37;;;;;;;;;;;4.80;99.90;;;;;;5094853;28;19992;-81
2022/02/23 01:51:06;;;;;;;;;;;4.90;99.90;;;;;;5061934;28;19932;-80
2022/02/23 01:53:32;;;;;;;;;;;4.80;99.90;;;;;;5057757;28;19926;-73
2022/02/23 01:55:59;;;;;;;;;;;4.80;99.90;;;;;;5063218;28;20462;-80
2022/02/23 01:58:26;;;;;;;;;;;4.70;99.90;;;;;;5078238;28;19980;-80
2022/02/23 02:00:52;;;;;;;;;;;4.90;99.90;;;;;;5067714;28;19940;-80
2022/02/23 02:03:19;;;;;;;;;;;4.80;99.90;;;;;;5073543;28;19925;-80
2022/02/23 02:05:45;;;;;;;;;;;4.80;99.90;;;;;;5071285;28;19985;-81
2022/02/23 02:08:13;;;;;;;;;;;4.80;99.90;;;;;;5066548;28;19909;-81
2022/02/23 02:10:40;;;;;;;;;;;4.70;99.90;;;;;;5066523;28;19984;-81
2022/02/23 02:13:07;;;;;;;;;;;4.70;99.90;;;;;;5096745;28;19935;-80
2022/02/23 02:15:33;;;;;;;;;;;4.60;99.90;;;;;;5061511;28;20011;-80
2022/02/23 02:18:00;;;;;;;;;;;4.70;99.90;;;;;;5064321;28;19925;-79
2022/02/23 02:20:27;;;;;;;;;;;4.60;99.90;;;;;;5063418;28;19939;-80
2022/02/23 02:22:54;;;;;;;;;;;4.60;99.90;;;;;;5068045;28;19921;-79
2022/02/23 02:25:21;;;;;;;;;;;4.70;99.90;;;;;;5066219;28;19988;-75
2022/02/23 02:27:48;;;;;;;;;;;4.60;99.90;;;;;;5079432;28;19936;-66
2022/02/23 02:30:14;;;;;;;;;;;4.50;99.90;;;;;;5079854;28;19947;-69
2022/02/23 02:32:41;;;;;;;;;;;4.60;99.90;;;;;;5079547;28;19963;-69
2022/02/23 02:35:09;;;;;;;;;;;4.50;99.90;;;;;;5079749;28;19924;-66
2022/02/23 02:37:35;;;;;;;;;;;4.50;99.90;;;;;;5079693;28;19909;-68
2022/02/23 02:40:04;;;;;;;;;;;4.50;99.90;;;;;;5079769;28;19972;-65
2022/02/23 02:42:30;;;;;;;;;;;4.50;99.90;;;;;;5079567;28;19968;-69
2022/02/23 02:44:57;;;;;;;;;;;4.50;99.90;;;;;;5079631;28;19972;-70
2022/02/23 02:47:24;;;;;;;;;;;4.50;99.90;;;;;;5079586;28;19955;-65
2022/02/23 02:49:51;;;;;;;;;;;4.60;99.90;;;;;;5079457;28;19909;-66
2022/02/23 02:52:18;;;;;;;;;;;4.50;99.90;;;;;;5079240;28;19943;-68
2022/02/23 02:54:44;;;;;;;;;;;4.50;99.90;;;;;;5079275;28;19968;-75
2022/02/23 02:57:12;;;;;;;;;;;4.50;99.90;;;;;;5079322;28;19929;-71
2022/02/23 02:59:39;;;;;;;;;;;4.50;99.90;;;;;;5078559;28;19972;-76
2022/02/23 03:02:06;;;;;;;;;;;4.60;99.90;;;;;;5079047;28;19931;-74
2022/02/23 03:04:32;;;;;;;;;;;4.60;99.90;;;;;;5062847;28;19956;-80
2022/02/23 03:06:59;;;;;;;;;;;4.60;99.90;;;;;;5059367;28;19909;-68
2022/02/23 03:09:26;;;;;;;;;;;4.60;99.90;;;;;;5059217;28;19988;-69
2022/02/23 03:11:52;;;;;;;;;;;4.50;99.90;;;;;;5059437;28;19910;-66
2022/02/23 03:14:20;;;;;;;;;;;4.60;99.90;;;;;;5059265;28;19949;-66
2022/02/23 03:16:48;;;;;;;;;;;4.50;99.90;;;;;;5059413;28;19965;-65
2022/02/23 03:19:14;;;;;;;;;;;4.60;99.90;;;;;;5059283;28;19937;-66
2022/02/23 03:21:41;;;;;;;;;;;4.40;99.90;;;;;;5059384;28;19976;-65
2022/02/23 03:24:08;;;;;;;;;;;4.40;99.90;;;;;;5059121;28;19984;-72
2022/02/23 03:26:34;;;;;;;;;;;4.40;99.90;;;;;;5070153;28;19980;-70
2022/02/23 03:29:01;;;;;;;;;;;4.40;99.90;;;;;;5079239;28;19976;-70
2022/02/23 03:31:29;;;;;;;;;;;4.40;99.90;;;;;;5079104;28;19917;-76
2022/02/23 03:33:56;;;;;;;;;;;4.30;99.90;;;;;;5079049;28;19916;-71
2022/02/23 03:36:22;;;;;;;;;;;4.20;99.90;;;;;;5078996;28;19950;-69
2022/02/23 03:38:49;;;;;;;;;;;4.20;99.90;;;;;;5079099;28;19944;-67
2022/02/23 03:41:16;;;;;;;;;;;4.20;99.90;;;;;;5078989;28;19964;-78
2022/02/23 03:43:42;;;;;;;;;;;4.10;99.90;;;;;;5079030;28;19947;-72
2022/02/23 03:46:09;;;;;;;;;;;4.10;99.90;;;;;;5079055;28;19964;-66
2022/02/23 03:48:37;;;;;;;;;;;4.10;99.90;;;;;;5078795;28;19961;-74
2022/02/23 03:51:04;;;;;;;;;;;4.00;99.90;;;;;;5069729;28;19948;-72
2022/02/23 03:53:31;;;;;;;;;;;4.00;99.90;;;;;;5078811;28;19947;-69
2022/02/23 03:55:57;;;;;;;;;;;4.00;99.90;;;;;;5078888;28;20077;-67
2022/02/23 03:58:24;;;;;;;;;;;4.00;99.90;;;;;;5078720;28;19973;-72
2022/02/23 04:00:51;;;;;;;;;;;4.00;99.90;;;;;;5078854;28;19972;-69
2022/02/23 04:03:18;;;;;;;;;;;4.00;99.90;;;;;;5078613;28;20000;-76
2022/02/23 04:05:46;;;;;;;;;;;4.00;99.90;;;;;;5078756;28;19972;-66
2022/02/23 04:08:12;;;;;;;;;;;4.00;99.90;;;;;;5078920;28;19909;-67
2022/02/23 04:10:39;;;;;;;;;;;3.90;99.90;;;;;;5080233;28;19935;-68
2022/02/23 04:13:06;;;;;;;;;;;3.90;99.90;;;;;;5082260;28;19944;-66
2022/02/23 04:15:32;;;;;;;;;;;3.80;99.90;;;;;;5082421;28;19936;-68
2022/02/23 04:17:59;;;;;;;;;;;3.90;99.90;;;;;;5078408;28;19937;-74
2022/02/23 04:20:26;;;;;;;;;;;4.00;99.90;;;;;;5061969;28;19937;-80
2022/02/23 04:22:55;;;;;;;;;;;3.90;99.90;;;;;;5067468;28;19909;-73
2022/02/23 04:25:22;;;;;;;;;;;4.00;99.90;;;;;;5077269;28;19925;-79
2022/02/23 04:27:49;;;;;;;;;;;3.90;99.90;;;;;;5057192;28;19925;-75
2022/02/23 04:30:15;;;;;;;;;;;3.90;99.90;;;;;;5061709;28;19992;-73
2022/02/23 04:32:42;;;;;;;;;;;4.00;99.90;;;;;;5061208;28;19932;-78
2022/02/23 04:35:09;;;;;;;;;;;4.00;99.90;;;;;;5073994;28;19925;-80
2022/02/23 04:37:36;;;;;;;;;;;4.00;99.90;;;;;;5079899;28;19943;-73
2022/02/23 04:40:04;;;;;;;;;;;4.00;99.90;;;;;;5081647;28;19976;-73
2022/02/23 04:42:31;;;;;;;;;;;4.00;99.90;;;;;;5070835;28;19936;-75
2022/02/23 04:45:00;;;;;;;;;;;4.00;99.90;;;;;;5061315;28;19953;-69
2022/02/23 04:47:27;;;;;;;;;;;3.90;99.90;;;;;;5061818;28;19909;-66
2022/02/23 04:49:54;;;;;;;;;;;3.80;99.90;;;;;;5088200;22;19914;-73
2022/02/23 04:52:21;;;;;;;;;;;4.90;99.90;;;;;;5101757;28;19916;-67
2022/02/23 04:54:50;;;;;;;;;;;3.80;99.90;;;;;;5082710;28;19909;-74
2022/02/23 04:57:18;;;;;;;;;;;3.80;99.90;;;;;;5081350;28;19944;-75
2022/02/23 04:59:44;;;;;;;;;;;3.70;99.90;;;;;;5084003;28;19967;-77
2022/02/23 05:02:11;;;;;;;;;;;3.70;99.90;;;;;;5084846;28;20019;-75
2022/02/23 05:04:38;;;;;;;;;;;3.70;99.90;;;;;;5054561;28;19929;-75
2022/02/23 05:07:05;;;;;;;;;;;3.60;99.90;;;;;;5069825;28;20293;-75
2022/02/23 05:09:32;;;;;;;;;;;3.60;99.90;;;;;;5064363;28;20287;-75
2022/02/23 05:11:58;;;;;;;;;;;3.50;99.90;;;;;;5063407;28;19932;-76
2022/02/23 05:14:26;;;;;;;;;;;3.50;99.90;;;;;;5059361;28;19931;-76
2022/02/23 05:16:53;;;;;;;;;;;3.40;99.90;;;;;;5053959;28;19931;-75
2022/02/23 05:19:20;;;;;;;;;;;3.40;99.90;;;;;;5059514;28;20380;-75
2022/02/23 05:21:46;;;;;;;;;;;3.30;99.90;;;;;;5057165;28;19928;-75
2022/02/23 05:24:13;;;;;;;;;;;3.30;99.90;;;;;;5060419;28;19939;-75
2022/02/23 05:26:39;;;;;;;;;;;3.30;99.90;;;;;;5055764;28;20027;-75
2022/02/23 05:29:06;;;;;;;;;;;3.20;99.90;;;;;;5055382;28;19924;-75
2022/02/23 05:31:34;;;;;;;;;;;3.20;99.90;;;;;;5062094;28;19928;-76
2022/02/23 05:34:01;;;;;;;;;;;3.30;99.90;;;;;;5068948;28;20280;-74
2022/02/23 05:36:28;;;;;;;;;;;3.10;99.90;;;;;;5056951;28;19975;-74
2022/02/23 05:38:54;;;;;;;;;;;3.00;99.90;;;;;;5062880;28;20015;-75
2022/02/23 05:41:21;;;;;;;;;;;3.00;99.90;;;;;;5062924;28;19925;-74
2022/02/23 05:43:48;;;;;;;;;;;2.90;99.90;;;;;;5058118;28;19924;-74
2022/02/23 05:46:14;;;;;;;;;;;2.90;99.90;;;;;;5058195;28;20035;-75
2022/02/23 05:48:42;;;;;;;;;;;3.10;99.90;;;;;;5056229;28;19930;-75
2022/02/23 05:51:24;;;;;;;;;;;3.10;99.90;;;;;;5052686;28;19932;-75
2022/02/23 05:53:50;;;;;;;;;;;3.10;99.90;;;;;;5052242;28;19935;-75
2022/02/23 05:56:17;;;;;;;;;;;3.10;99.90;;;;;;5050743;28;20264;-76
2022/02/23 05:58:44;;;;;;;;;;;3.10;99.90;;;;;;5052839;28;20273;-75
2022/02/23 06:01:11;;;;;;;;;;;3.00;99.90;;;;;;5049947;28;20440;-75
2022/02/23 06:03:37;;;;;;;;;;;3.00;99.90;;;;;;5050711;28;19925;-75
2022/02/23 06:06:05;;;;;;;;;;;3.10;99.90;;;;;;5050311;28;19943;-75
2022/02/23 06:08:32;;;;;;;;;;;3.10;99.90;;;;;;5050844;28;19932;-75
2022/02/23 06:10:59;;;;;;;;;;;3.10;99.90;;;;;;5050992;28;20015;-76
2022/02/23 06:13:26;;;;;;;;;;;3.10;99.90;;;;;;5052779;28;19924;-76
2022/02/23 06:15:53;;;;;;;;;;;3.00;99.90;;;;;;5050997;28;19931;-76
2022/02/23 06:18:19;;;;;;;;;;;3.00;99.90;;;;;;5057957;28;19975;-75
2022/02/23 06:20:46;;;;;;;;;;;3.00;99.90;;;;;;5051432;28;20307;-74
2022/02/23 06:23:14;;;;;;;;;;;2.90;99.90;;;;;;5041703;28;19994;-74
2022/02/23 06:25:41;;;;;;;;;;;3.10;99.90;;;;;;5042778;28;19928;-74
2022/02/23 06:28:08;;;;;;;;;;;2.90;99.90;;;;;;5053795;28;20414;-74
2022/02/23 06:30:34;;;;;;;;;;;3.00;99.90;;;;;;5052394;28;19924;-74
2022/02/23 06:33:01;;;;;;;;;;;3.00;99.90;;;;;;5038446;28;19936;-74
2022/02/23 06:35:28;;;;;;;;;;;3.00;99.90;;;;;;5049981;28;19929;-74
2022/02/23 06:37:55;;;;;;;;;;;3.00;99.90;;;;;;5058659;28;19935;-73
2022/02/23 06:40:23;;;;;;;;;;;3.00;99.90;;;;;;5058418;28;20335;-73
2022/02/23 06:42:51;;;;;;;;;;;3.00;99.90;;;;;;5057248;28;19963;-74
2022/02/23 06:45:19;;;;;;;;;;;3.00;99.90;;;;;;5061055;28;19947;-73
2022/02/23 06:47:46;;;;;;;;;;;2.90;99.90;;;;;;5047838;28;19950;-73
2022/02/23 06:50:13;;;;;;;;;;;3.00;99.90;;;;;;5056848;28;19984;-73
2022/02/23 06:52:40;;;;;;;;;;;3.10;99.90;;;;;;5062260;28;20020;-74
2022/02/23 06:55:08;;;;;;;;;;;2.90;99.90;;;;;;5060912;28;19972;-75
2022/02/23 06:57:40;;;;;;;;;;;2.90;99.90;;;;;;5051339;28;20011;-74
2022/02/23 07:00:07;;;;;;;;;;;2.90;99.90;;;;;;5046548;28;19928;-73
2022/02/23 07:02:35;;;;;;;;;;;2.90;99.90;;;;;;5047952;28;20384;-74
2022/02/23 07:05:02;;;;;;;;;;;3.00;99.90;;;;;;5050838;28;19950;-74
2022/02/23 07:07:29;;;;;;;;;;;3.00;99.90;;;;;;5051962;28;19931;-73
2022/02/23 07:09:56;;;;;;;;;;;3.00;99.90;;;;;;5044549;28;19936;-73
2022/02/23 07:12:26;;;;;;;;;;;3.00;99.90;;;;;;5042827;28;19925;-72
2022/02/23 07:14:54;;;;;;;;;;;3.00;99.90;;;;;;5047429;28;19931;-73
2022/02/23 07:17:21;;;;;;;;;;;3.10;99.90;;;;;;5055942;28;19924;-72
2022/02/23 07:19:47;;;;;;;;;;;3.10;99.90;;;;;;5057525;28;20011;-73
2022/02/23 07:22:14;;;;;;;;;;;3.10;99.90;;;;;;5049858;28;20015;-71
2022/02/23 07:24:40;;;;;;;;;;;3.20;99.90;;;;;;5059795;28;19924;-72
2022/02/23 07:27:11;;;;;;;;;;;3.30;99.90;;;;;;5053462;28;20399;-72
2022/02/23 07:29:38;;;;;;;;;;;3.30;99.90;;;;;;5051320;28;20036;-72
2022/02/23 07:32:06;;;;;;;;;;;3.30;99.90;;;;;;5050937;28;19983;-71
2022/02/23 07:34:37;;;;;;;;;;;3.40;99.90;;;;;;5055530;28;20023;-74
2022/02/23 07:37:04;;;;;;;;;;;3.40;99.90;;;;;;5052622;28;19925;-73
2022/02/23 07:39:30;;;;;;;;;;;3.50;99.90;;;;;;5052224;28;19925;-73
2022/02/23 07:41:57;;;;;;;;;;;3.50;99.90;;;;;;5045768;28;19924;-73
2022/02/23 07:44:24;;;;;;;;;;;3.60;99.90;;;;;;5045134;28;19939;-72
2022/02/23 07:46:50;;;;;;;;;;;3.70;99.90;;;;;;5044784;28;20003;-72
2022/02/23 07:49:18;;;;;;;;;;;3.80;99.90;;;;;;5055844;28;20033;-72
2022/02/23 07:51:45;;;;;;;;;;;3.90;99.90;;;;;;5048332;28;19929;-72
2022/02/23 07:54:12;;;;;;;;;;;3.90;99.90;;;;;;5054199;28;19925;-72
2022/02/23 07:56:38;;;;;;;;;;;4.00;99.90;;;;;;5054502;28;19924;-73
2022/02/23 07:59:05;;;;;;;;;;;4.10;99.90;;;;;;5054123;28;20028;-72
2022/02/23 08:01:33;;;;;;;;;;;4.10;99.90;;;;;;5055385;28;19924;-72
2022/02/23 08:03:59;;;;;;;;;;;4.40;99.90;;;;;;5048791;28;19924;-72
2022/02/23 08:06:28;;;;;;;;;;;4.30;99.90;;;;;;5050134;28;19925;-72
2022/02/23 08:08:56;;;;;;;;;;;4.40;99.90;;;;;;5053841;28;19928;-72
2022/02/23 08:11:23;;;;;;;;;;;4.50;99.90;;;;;;5050848;28;20391;-74
2022/02/23 08:13:56;;;;;;;;;;;4.50;99.90;;;;;;5050609;28;20012;-73
2022/02/23 08:21:56;;;;;;;;;;;5.60;99.90;;;;;;5047962;28;20062;-72
2022/02/23 08:24:23;;;;;;;;;;;8.10;99.90;;;;;;5044530;28;19929;-72
2022/02/23 08:26:49;;;;;;;;;;;10.00;99.90;;;;;;5050864;28;19929;-73
2022/02/23 08:29:16;;;;;;;;;;;11.20;99.90;;;;;;5049442;28;19924;-70
2022/02/23 08:31:43;;;;;;;;;;;12.40;94.70;;;;;;5043834;28;19925;-71
2022/02/23 08:34:10;;;;;;;;;;;13.50;89.20;;;;;;5056004;28;20475;-70
2022/02/23 08:36:36;;;;;;;;;;;14.00;78.00;;;;;;5057219;28;19930;-70
2022/02/23 08:39:04;;;;;;;;;;;13.90;73.40;;;;;;5054939;28;19925;-70
2022/02/23 08:41:31;;;;;;;;;;;14.40;70.30;;;;;;5052976;28;19964;-72
2022/02/23 08:43:58;;;;;;;;;;;14.90;63.50;;;;;;5062310;28;20060;-71
2022/02/23 08:46:24;;;;;;;;;;;14.70;62.00;;;;;;5040216;28;20410;-72
2022/02/23 08:48:52;;;;;;;;;;;14.80;59.70;;;;;;5054602;28;19924;-72
2022/02/23 08:51:19;;;;;;;;;;;14.50;59.80;;;;;;5056506;28;19925;-72
2022/02/23 08:53:45;;;;;;;;;;;14.90;58.30;;;;;;5060487;28;19975;-74
2022/02/23 08:56:14;;;;;;;;;;;13.90;59.10;;;;;;5048498;28;19931;-73
2022/02/23 08:58:40;;;;;;;;;;;13.90;59.60;;;;;;5058385;28;19924;-72
2022/02/23 09:01:07;;;;;;;;;;;14.20;59.40;;;;;;5050779;28;19964;-72
2022/02/23 09:03:34;;;;;;;;;;;14.60;57.70;;;;;;5048129;28;19926;-72
2022/02/23 09:06:00;;;;;;;;;;;14.70;56.50;;;;;;5044265;28;19931;-71
2022/02/23 09:08:27;;;;;;;;;;;14.70;54.60;;;;;;5058137;28;20228;-72
2022/02/23 09:10:53;;;;;;;;;;;14.30;55.80;;;;;;5050780;28;19940;-72
2022/02/23 09:13:21;;;;;;;;;;;13.80;56.40;;;;;;5050012;28;19924;-72
2022/02/23 09:15:48;;;;;;;;;;;13.60;58.20;;;;;;5054940;28;20041;-72
2022/02/23 09:18:15;;;;;;;;;;;13.30;59.10;;;;;;5050013;28;19925;-72
2022/02/23 09:20:41;;;;;;;;;;;13.80;58.60;;;;;;5051803;28;20019;-72
2022/02/23 09:23:08;;;;;;;;;;;14.50;57.50;;;;;;5052595;28;19931;-73
2022/02/23 09:25:35;;;;;;;;;;;15.00;55.40;;;;;;5059942;28;20651;-75
2022/02/23 09:28:01;;;;;;;;;;;15.50;54.00;;;;;;5050547;28;19925;-72
2022/02/23 09:30:30;;;;;;;;;;;15.30;52.20;;;;;;5053175;28;19999;-72
2022/02/23 09:32:57;;;;;;;;;;;14.40;52.60;;;;;;5050594;28;19928;-72
2022/02/23 09:35:25;;;;;;;;;;;13.70;55.10;;;;;;5061110;28;19928;-71
2022/02/23 09:37:52;;;;;;;;;;;13.30;55.90;;;;;;5047032;28;20591;-72
2022/02/23 09:40:19;;;;;;;;;;;13.30;57.50;;;;;;5043899;28;20019;-73
2022/02/23 09:42:47;;;;;;;;;;;13.60;55.80;;;;;;5042605;28;19933;-73
2022/02/23 09:45:13;;;;;;;;;;;13.50;56.20;;;;;;5043126;28;19955;-73
2022/02/23 09:47:42;;;;;;;;;;;13.20;57.50;;;;;;5048331;28;19951;-73
2022/02/23 09:50:11;;;;;;;;;;;11.70;59.50;;;;;;5046459;28;19954;-73
2022/02/23 09:52:37;;;;;;;;;;;10.80;66.20;;;;;;5045970;28;19933;-73
2022/02/23 09:55:05;;;;;;;;;;;10.00;71.10;;;;;;5050375;28;19935;-75
2022/02/23 09:57:32;;;;;;;;;;;9.60;77.10;;;;;;5051485;28;19932;-70
2022/02/23 09:59:58;;;;;;;;;;;9.30;82.00;;;;;;5049583;28;20291;-70
2022/02/23 10:02:26;;;;;;;;;;;9.30;84.70;;;;;;5049048;28;19971;-70
2022/02/23 10:04:54;;;;;;;;;;;9.20;87.40;;;;;;5050218;28;20007;-74
2022/02/23 10:07:27;;;;;;;;;;;9.20;90.00;;;;;;5033886;28;20295;-73
2022/02/23 10:09:57;;;;;;;;;;;9.60;91.20;;;;;;5043717;28;19954;-74
2022/02/23 10:12:26;;;;;;;;;;;9.20;91.10;;;;;;5052540;28;19931;-74
2022/02/23 10:15:04;;;;;;;;;;;9.20;90.90;;;;;;5049973;28;19925;-74
2022/02/23 10:17:36;;;;;;;;;;;9.10;90.80;;;;;;5047819;28;20319;-74
2022/02/23 10:20:04;;;;;;;;;;;9.10;90.70;;;;;;5043491;28;19979;-74
2022/02/23 10:22:32;;;;;;;;;;;9.20;91.40;;;;;;5050357;28;19994;-74
2022/02/23 10:24:59;;;;;;;;;;;9.20;90.40;;;;;;5051406;28;19971;-74
2022/02/23 10:27:32;;;;;;;;;;;9.20;90.40;;;;;;5055542;28;19972;-74
2022/02/23 10:29:59;;;;;;;;;;;9.30;91.00;;;;;;5045313;28;19933;-74
2022/02/23 10:32:26;;;;;;;;;;;9.40;90.90;;;;;;5041897;28;20368;-74
2022/02/23 10:34:53;;;;;;;;;;;9.40;91.00;;;;;;5047425;28;20027;-74
2022/02/23 10:37:22;;;;;;;;;;;9.50;91.20;;;;;;5067584;28;19975;-74
2022/02/23 10:39:52;;;;;;;;;;;9.60;90.30;;;;;;5045742;28;21457;-74
2022/02/23 10:42:21;;;;;;;;;;;9.60;88.80;;;;;;5046595;28;19929;-75
2022/02/23 10:44:49;;;;;;;;;;;9.60;87.40;;;;;;5047244;28;19968;-75
2022/02/23 10:47:23;;;;;;;;;;;9.60;87.80;;;;;;5045065;28;20287;-74
2022/02/23 10:50:04;;;;;;;;;;;9.70;87.70;;;;;;5037025;28;20036;-75
2022/02/23 10:52:33;;;;;;;;;;;9.70;86.80;;;;;;5045968;28;19933;-76
2022/02/23 10:55:14;;;;;;;;;;;9.70;86.60;;;;;;5043973;28;20020;-77
2022/02/23 10:57:42;;;;;;;;;;;9.80;86.10;;;;;;5048083;28;19929;-76
2022/02/23 11:00:13;;;;;;;;;;;9.90;85.10;;;;;;5052529;28;20015;-76
2022/02/23 11:02:40;;;;;;;;;;;10.00;85.10;;;;;;5045079;28;19935;-75
2022/02/23 11:05:07;;;;;;;;;;;10.00;85.10;;;;;;5048783;28;19983;-74
2022/02/23 11:07:36;;;;;;;;;;;10.10;84.10;;;;;;5052123;28;20019;-76
2022/02/23 11:10:03;;;;;;;;;;;10.30;83.70;;;;;;5054680;28;20327;-75
2022/02/23 11:12:31;;;;;;;;;;;10.40;81.80;;;;;;5047707;28;20314;-76
2022/02/23 11:14:58;;;;;;;;;;;10.30;82.60;;;;;;5040955;28;19970;-77
2022/02/23 11:17:25;;;;;;;;;;;10.30;81.40;;;;;;5049561;28;20387;-75
2022/02/23 11:19:53;;;;;;;;;;;10.40;80.30;;;;;;5044799;28;19960;-76
2022/02/23 11:22:20;;;;;;;;;;;10.40;80.30;;;;;;5050566;28;19978;-74
2022/02/23 11:24:48;;;;;;;;;;;10.60;81.50;;;;;;5049887;28;20002;-74
2022/02/23 11:27:20;;;;;;;;;;;10.70;80.90;;;;;;5053708;28;19925;-75
2022/02/23 11:29:50;;;;;;;;;;;10.80;79.00;;;;;;5054071;28;20342;-73
2022/02/23 11:32:29;;;;;;;;;;;10.80;78.80;;;;;;5058645;28;20375;-73
2022/02/23 11:34:56;;;;;;;;;;;10.80;78.40;;;;;;5068721;28;19928;-74
2022/02/23 11:37:23;;;;;;;;;;;10.70;77.10;;;;;;5057152;28;20015;-73
2022/02/23 11:39:52;;;;;;;;;;;10.80;77.30;;;;;;5056786;28;20007;-72
2022/02/23 11:42:21;;;;;;;;;;;10.90;78.10;;;;;;5056369;28;19925;-71
2022/02/23 11:44:50;;;;;;;;;;;10.90;74.70;;;;;;5046245;28;19935;-73
2022/02/23 11:47:18;;;;;;;;;;;10.90;76.30;;;;;;5045935;28;19961;-73
2022/02/23 11:49:53;;;;;;;;;;;11.00;75.40;;;;;;5067583;28;20363;-73
2022/02/23 11:52:20;;;;;;;;;;;11.10;73.40;;;;;;5058905;28;19938;-73
2022/02/23 11:54:51;;;;;;;;;;;11.20;74.10;;;;;;5055353;28;19929;-73
2022/02/23 11:57:32;;;;;;;;;;;11.10;72.10;;;;;;5052755;28;19929;-74
2022/02/23 12:00:00;;;;;;;;;;;11.10;71.00;;;;;;5060614;28;19924;-73
2022/02/23 12:02:29;;;;;;;;;;;11.10;68.90;;;;;;5064616;28;20034;-73
2022/02/23 12:04:56;;;;;;;;;;;11.30;71.50;;;;;;5056183;28;19937;-73
2022/02/23 12:07:23;;;;;;;;;;;11.40;66.70;;;;;;5063403;28;19928;-73
2022/02/23 12:10:07;;;;;;;;;;;11.30;66.90;;;;;;5054165;28;20362;-75
2022/02/23 12:12:35;;;;;;;;;;;11.50;68.10;;;;;;5054549;28;19946;-72
2022/02/23 12:15:04;;;;;;;;;;;11.50;65.70;;;;;;5068230;28;20011;-73
2022/02/23 12:17:50;;;;;;;;;;;11.50;65.90;;;;;;5052908;28;19924;-73
2022/02/23 12:20:35;;;;;;;;;;;11.60;67.20;;;;;;5052349;28;19925;-74
2022/02/23 12:23:02;;;;;;;;;;;11.60;65.30;;;;;;5065027;28;19924;-72
2022/02/23 12:25:44;;;;;;;;;;;12.00;66.30;;;;;;5043701;28;19925;-73
2022/02/23 12:28:10;;;;;;;;;;;12.00;66.70;;;;;;5052147;28;20463;-73
2022/02/23 12:30:40;;;;;;;;;;;11.80;63.20;;;;;;5060096;28;20578;-73
2022/02/23 12:33:10;;;;;;;;;;;11.80;62.60;;;;;;5052137;28;20392;-73
2022/02/23 12:35:37;;;;;;;;;;;11.80;61.80;;;;;;5057237;28;20375;-74
2022/02/23 12:38:04;;;;;;;;;;;11.70;60.20;;;;;;5051986;28;19925;-74
2022/02/23 12:40:31;;;;;;;;;;;11.90;61.90;;;;;;5050590;28;19931;-74
2022/02/23 12:43:03;;;;;;;;;;;11.80;61.20;;;;;;5054283;28;19931;-74
2022/02/23 12:45:30;;;;;;;;;;;11.90;61.60;;;;;;5056601;28;20027;-75
2022/02/23 12:48:01;;;;;;;;;;;11.90;62.10;;;;;;5053728;28;19971;-73
2022/02/23 12:50:28;;;;;;;;;;;11.90;58.90;;;;;;5047440;28;19935;-74
2022/02/23 12:52:55;;;;;;;;;;;11.90;59.40;;;;;;5055115;28;19931;-75
2022/02/23 12:55:22;;;;;;;;;;;11.70;60.30;;;;;;5047112;28;19925;-74
2022/02/23 12:57:52;;;;;;;;;;;11.70;57.60;;;;;;5042838;28;19968;-74
2022/02/23 13:00:22;;;;;;;;;;;11.80;57.20;;;;;;5044679;28;19939;-74
2022/02/23 13:02:49;;;;;;;;;;;11.90;55.80;;;;;;5052892;28;19925;-73
2022/02/23 13:05:21;;;;;;;;;;;11.80;54.00;;;;;;5055014;28;20011;-75
2022/02/23 13:07:48;;;;;;;;;;;11.80;54.40;;;;;;5049092;28;19924;-73
2022/02/23 13:10:16;;;;;;;;;;;11.90;54.30;;;;;;5050576;28;19947;-73
2022/02/23 13:12:44;;;;;;;;;;;11.90;55.20;;;;;;5058362;28;20401;-73
2022/02/23 13:15:11;;;;;;;;;;;11.90;55.50;;;;;;5046013;28;19940;-73
2022/02/23 13:17:38;;;;;;;;;;;12.00;53.90;;;;;;5055349;28;19933;-72
2022/02/23 13:20:07;;;;;;;;;;;11.90;54.70;;;;;;5037691;28;19928;-73
2022/02/23 13:22:37;;;;;;;;;;;12.10;54.90;;;;;;5049928;28;19925;-73
2022/02/23 13:25:03;;;;;;;;;;;12.10;53.90;;;;;;5043069;28;19968;-74
2022/02/23 13:27:32;;;;;;;;;;;12.00;54.60;;;;;;5046251;28;19928;-72
2022/02/23 13:30:01;;;;;;;;;;;12.00;54.40;;;;;;5051767;28;19931;-75
2022/02/23 13:32:32;;;;;;;;;;;12.00;54.20;;;;;;5050499;28;20371;-75
2022/02/23 13:35:01;;;;;;;;;;;12.00;53.30;;;;;;5047246;28;19995;-72
2022/02/23 13:37:33;;;;;;;;;;;12.10;55.50;;;;;;5045768;28;19928;-73
2022/02/23 13:40:12;;;;;;;;;;;12.00;55.40;;;;;;5051102;28;19940;-71
2022/02/23 13:42:43;;;;;;;;;;;11.90;57.00;;;;;;5049434;28;20314;-74
2022/02/23 13:45:12;;;;;;;;;;;11.90;57.20;;;;;;5047299;28;20284;-70
2022/02/23 13:47:39;;;;;;;;;;;11.90;56.80;;;;;;5061649;28;19936;-70
2022/02/23 13:50:07;;;;;;;;;;;11.90;56.80;;;;;;5052570;28;20405;-70
2022/02/23 13:52:36;;;;;;;;;;;12.00;56.90;;;;;;5056691;28;19942;-71
2022/02/23 13:55:06;;;;;;;;;;;12.10;53.70;;;;;;5052991;28;19935;-72
2022/02/23 13:57:38;;;;;;;;;;;12.10;54.70;;;;;;5041011;28;19943;-71
2022/02/23 14:00:06;;;;;;;;;;;12.20;54.70;;;;;;5054233;28;19925;-72
2022/02/23 14:02:35;;;;;;;;;;;12.10;54.70;;;;;;5057354;28;20332;-73
2022/02/23 14:05:11;;;;;;;;;;;11.90;53.30;;;;;;5050998;28;19961;-72
2022/02/23 14:07:39;;;;;;;;;;;11.90;54.10;;;;;;5047233;28;19924;-72
2022/02/23 14:10:09;;;;;;;;;;;11.90;54.20;;;;;;5049121;28;20342;-72
2022/02/23 14:12:36;;;;;;;;;;;11.80;55.00;;;;;;5048396;28;19932;-71
2022/02/23 14:15:05;;;;;;;;;;;11.60;54.20;;;;;;5048029;28;19929;-71
2022/02/23 14:17:32;;;;;;;;;;;11.50;53.90;;;;;;5047612;28;19925;-71
2022/02/23 14:20:11;;;;;;;;;;;11.70;55.50;;;;;;5060896;28;19947;-72
2022/02/23 14:22:39;;;;;;;;;;;11.80;56.30;;;;;;5058914;28;19925;-71
2022/02/23 14:25:06;;;;;;;;;;;11.70;56.50;;;;;;5054078;28;19932;-71
2022/02/23 14:27:35;;;;;;;;;;;11.50;56.40;;;;;;5048802;28;20011;-70
2022/02/23 14:30:02;;;;;;;;;;;11.60;57.70;;;;;;5051115;28;20042;-72
2022/02/23 14:32:32;;;;;;;;;;;11.60;59.00;;;;;;5043617;28;19924;-72
2022/02/23 14:35:02;;;;;;;;;;;11.70;59.20;;;;;;5049976;28;19925;-72